Terminal Aerodrome Forecast
Issued by NWS

Home | Current Version | Previous Version | Text Only | Print | Product List | Glossary On
Versions: 1 2 3 4 5 6 7 8 9 10 11 12 13 14 15 16 17 18 19 20 21 22
328
FTUS41 KPBZ 121814 AAA
TAFLBE
TAF AMD
KLBE 121814Z 1218/1318 25012KT 3SM -SN OVC035
     FM122200 25010G22KT P6SM -SN BKN025
     FM130200 28015G28KT 4SM -SHSN BKN015
      TEMPO 1302/1306 1SM -SHSN BKN007
     FM130700 30012G25KT P6SM -SHSN BKN025=

USA.gov is the U.S. government's official web portal to all federal, state and local government web resources and services.